Time;durP1;ratioP1;P1;durP2;ratioP2;P2;SDS_P1;SDS_P2;PMS_P1;PMS_P2;Temp;Humidity;BMP_temperature;BMP_pressure;BME280_temperature;BME280_humidity;BME280_pressure;Samples;Min_cycle;Max_cycle;Signal;HPM_P1;HPM_P2
2022/06/13 00:00:27;;;;;;;11.80;5.25;;;;;;;11.08;87.36;102024.69;4993474;28;20077;-89
2022/06/13 00:02:52;;;;;;;9.23;5.15;;;;;;;11.37;87.22;102064.72;4993828;28;20034;-89
2022/06/13 00:05:18;;;;;;;8.63;5.03;;;;;;;11.10;87.43;102014.28;4992446;28;20158;-89
2022/06/13 00:07:44;;;;;;;7.43;4.63;;;;;;;11.34;87.29;102066.63;4993475;28;20034;-84
2022/06/13 00:10:11;;;;;;;9.30;5.00;;;;;;;11.28;86.93;102067.72;4993602;28;20204;-86
2022/06/13 00:12:38;;;;;;;11.52;5.38;;;;;;;11.15;87.07;102041.63;4993290;28;20141;-87
2022/06/13 00:15:04;;;;;;;9.15;4.65;;;;;;;10.85;87.09;101996.50;4975675;28;20030;-85
2022/06/13 00:17:30;;;;;;;9.90;5.47;;;;;;;11.05;87.84;102024.84;4993379;28;20471;-81
2022/06/13 00:19:56;;;;;;;10.88;5.07;;;;;;;11.15;88.17;102046.78;4993285;28;20113;-90
2022/06/13 00:22:39;;;;;;;9.70;5.68;;;;;;;11.03;88.34;102015.50;4976581;28;20026;-90
2022/06/13 00:25:04;;;;;;;12.13;6.13;;;;;;;10.27;87.75;101903.53;4993342;28;20109;-90
2022/06/13 00:27:38;;;;;;;14.35;7.15;;;;;;;10.80;88.21;101970.84;4993591;28;20113;-91
2022/06/13 00:30:10;;;;;;;13.98;5.80;;;;;;;11.39;88.57;102064.66;4993263;28;20030;-90
2022/06/13 00:32:35;;;;;;;12.93;5.80;;;;;;;10.77;88.72;101942.56;4993210;28;20085;-91
2022/06/13 00:35:04;;;;;;;9.07;5.13;;;;;;;11.48;88.87;102035.75;4975787;28;20568;-90
2022/06/13 00:37:31;;;;;;;11.90;5.40;;;;;;;11.69;88.89;102047.66;4993340;28;20015;-90
2022/06/13 00:39:57;;;;;;;10.70;4.85;;;;;;;11.71;89.00;102034.69;4993209;28;20089;-90
2022/06/13 00:42:25;;;;;;;11.68;5.28;;;;;;;11.59;89.21;102002.47;4993118;28;20027;-89
2022/06/13 00:45:25;;;;;;;10.30;4.90;;;;;;;11.47;89.06;101964.25;4995219;28;20026;-89
2022/06/13 00:48:02;;;;;;;12.88;6.28;;;;;;;10.68;89.05;101828.50;4902093;29;20084;-90
2022/06/13 00:50:44;;;;;;;9.80;5.20;;;;;;;11.12;89.12;101880.66;4917964;29;20059;-87
2022/06/13 00:53:18;;;;;;;12.88;6.15;;;;;;;12.12;88.79;102024.91;4918054;29;20032;-90
2022/06/13 00:55:52;;;;;;;11.43;6.03;;;;;;;12.16;89.40;102028.16;4917422;29;20440;-85
2022/06/13 00:58:18;;;;;;;13.27;6.22;;;;;;;12.21;88.97;102028.78;4917751;29;20042;-87
2022/06/13 01:00:59;;;;;;;15.18;6.72;;;;;;;11.31;88.25;101878.84;4917957;29;20396;-87
2022/06/13 01:03:27;;;;;;;14.68;7.22;;;;;;;12.33;88.21;102023.81;4917840;29;20127;-85
2022/06/13 01:05:59;;;;;;;14.02;7.25;;;;;;;12.18;87.84;101988.31;4917651;29;20167;-89
2022/06/13 01:08:26;;;;;;;12.77;6.95;;;;;;;12.00;87.25;101959.06;4917329;29;20603;-87
2022/06/13 01:13:50;;;;;;;17.88;7.10;;;;;;;12.50;85.98;102027.28;4917576;29;20051;-90
2022/06/13 01:16:37;;;;;;;17.00;7.28;;;;;;;12.55;84.93;102023.53;4901666;29;20392;-89
2022/06/13 01:19:11;;;;;;;13.05;7.15;;;;;;;12.56;85.58;102027.78;4901761;29;20187;-88
2022/06/13 01:21:47;;;;;;;15.77;7.30;;;;;;;12.63;84.49;102025.72;4916937;29;20516;-82
2022/06/13 01:24:38;;;;;;;12.98;7.15;;;;;;;12.69;84.55;102020.22;4984277;28;20422;-84
2022/06/13 01:27:24;;;;;;;12.52;7.00;;;;;;;12.68;84.85;102031.50;4996284;28;20085;-88
2022/06/13 01:30:01;;;;;;;18.00;7.75;;;;;;;12.67;85.66;102031.56;4996023;28;20058;-82
2022/06/13 01:32:51;;;;;;;14.18;7.32;;;;;;;12.43;84.68;101997.44;4996296;28;20105;-88
2022/06/13 01:35:29;;;;;;;17.83;7.57;;;;;;;12.73;84.75;102028.69;4996235;28;20031;-90
2022/06/13 01:38:19;;;;;;;14.77;7.57;;;;;;;12.38;85.56;101969.16;4995905;28;20068;-81
2022/06/13 01:40:53;;;;;;;17.80;7.88;;;;;;;12.78;84.07;102016.28;4995966;28;20034;-91
2022/06/13 01:43:26;;;;;;;15.20;7.18;;;;;;;12.72;83.82;102009.69;4995919;28;20029;-90
2022/06/13 01:46:08;;;;;;;15.65;7.68;;;;;;;12.80;84.72;102012.72;4996127;28;20478;-88
2022/06/13 01:48:59;;;;;;;17.90;7.18;;;;;;;12.81;84.39;102013.56;4995822;28;20033;-91
2022/06/13 01:51:35;;;;;;;17.35;8.05;;;;;;;12.77;85.32;102018.06;4995955;28;20076;-90
2022/06/13 01:54:30;;;;;;;15.75;7.57;;;;;;;12.73;86.06;102019.13;4995834;28;20417;-88
2022/06/13 01:57:14;;;;;;;16.02;7.97;;;;;;;12.77;84.85;102018.06;4994160;28;20486;-90
2022/06/13 01:59:51;;;;;;;14.07;6.72;;;;;;;12.77;84.96;102019.81;4995987;28;20081;-88
2022/06/13 02:02:26;;;;;;;13.38;7.50;;;;;;;12.81;84.92;102029.13;4995780;28;20026;-90
2022/06/13 02:05:34;;;;;;;13.40;7.45;;;;;;;12.86;84.57;102029.69;4995492;28;20034;-89
2022/06/13 02:08:08;;;;;;;18.42;7.63;;;;;;;12.90;84.95;102021.69;4995694;28;20038;-84
2022/06/13 02:10:39;;;;;;;15.93;7.28;;;;;;;12.81;84.37;102006.63;4995596;28;20042;-85
2022/06/13 02:13:09;;;;;;;13.68;7.00;;;;;;;13.00;85.15;102029.81;4995637;28;20405;-88
2022/06/13 02:15:45;;;;;;;19.75;7.55;;;;;;;12.97;84.71;102016.16;4995502;28;20061;-88
2022/06/13 02:18:26;;;;;;;17.10;7.85;;;;;;;12.97;83.67;102019.56;4995471;28;20034;-88
2022/06/13 02:20:58;;;;;;;17.33;7.53;;;;;;;13.08;84.42;102037.19;4995147;28;20081;-88
2022/06/13 02:23:30;;;;;;;15.48;6.75;;;;;;;12.80;83.84;101980.78;4995268;28;20034;-89
2022/06/13 02:26:02;;;;;;;15.13;7.95;;;;;;;12.70;84.12;101958.88;4995203;28;20018;-88
2022/06/13 02:28:36;;;;;;;12.15;7.00;;;;;;;13.07;83.56;102025.94;4995205;28;20069;-90
2022/06/13 02:31:14;;;;;;;13.85;7.85;;;;;;;13.03;84.18;102016.66;4995077;28;20034;-90
2022/06/13 02:33:50;;;;;;;15.75;8.05;;;;;;;12.96;84.14;102002.34;4977574;28;20045;-90
2022/06/13 02:36:27;;;;;;;17.35;7.80;;;;;;;13.02;84.41;102011.56;4994995;28;20366;-82
2022/06/13 02:39:10;;;;;;;18.02;8.77;;;;;;;12.03;83.65;101857.91;4994870;28;20088;-88
2022/06/13 02:41:43;;;;;;;18.75;7.85;;;;;;;12.98;84.67;102012.63;4994862;28;20030;-83
2022/06/13 02:44:17;;;;;;;21.35;8.20;;;;;;;12.56;84.87;101944.88;4994862;28;20109;-85
2022/06/13 02:46:48;;;;;;;20.73;9.00;;;;;;;12.68;84.35;101964.09;4995135;28;20406;-88
2022/06/13 02:49:24;;;;;;;16.92;8.05;;;;;;;12.96;85.40;102014.47;4995035;28;20062;-83
2022/06/13 02:52:07;;;;;;;16.13;8.50;;;;;;;12.97;84.84;102010.97;4994695;28;20030;-88
2022/06/13 02:54:49;;;;;;;17.08;8.27;;;;;;;12.93;85.62;102008.53;4994866;28;20401;-89
2022/06/13 02:57:31;;;;;;;19.17;9.57;;;;;;;12.92;85.18;102006.88;4992718;28;20398;-89
2022/06/13 03:00:25;;;;;;;23.45;10.20;;;;;;;12.90;85.39;102003.53;4994456;28;20038;-89
2022/06/13 03:03:00;;;;;;;22.70;9.48;;;;;;;12.92;85.77;101999.09;4994965;28;20394;-90
2022/06/13 03:05:50;;;;;;;16.02;8.90;;;;;;;12.90;85.69;101998.34;4976878;28;20092;-89
2022/06/13 03:08:27;;;;;;;19.73;10.00;;;;;;;12.84;85.88;102003.00;4994200;28;20034;-89
2022/06/13 03:11:35;;;;;;;17.48;9.40;;;;;;;12.54;86.16;101951.06;4994650;28;20026;-83
2022/06/13 03:14:07;;;;;;;21.42;10.75;;;;;;;12.78;86.54;102009.38;4977095;28;20046;-83
2022/06/13 03:17:13;;;;;;;17.92;10.25;;;;;;;12.78;86.67;102011.09;4994251;28;20116;-87
2022/06/13 03:19:51;;;;;;;20.58;9.77;;;;;;;12.67;86.54;102003.06;4933913;29;20503;-88
2022/06/13 03:22:30;;;;;;;23.95;10.60;;;;;;;12.55;86.99;101996.78;4934111;29;20043;-84
2022/06/13 03:25:07;;;;;;;19.92;10.32;;;;;;;12.37;87.22;101969.25;4934081;29;20046;-85
2022/06/13 03:27:35;;;;;;;21.65;10.27;;;;;;;12.47;87.04;101989.41;4934131;29;20047;-84
2022/06/13 03:30:14;;;;;;;24.67;11.23;;;;;;;12.57;87.21;102011.31;4934101;29;20459;-85
2022/06/13 03:35:44;;;;;;;21.90;10.75;;;;;;;12.26;87.97;101982.75;4934335;29;20079;-82
2022/06/13 03:38:17;;;;;;;18.75;10.85;;;;;;;12.39;88.04;102020.09;4933785;29;20535;-85
2022/06/13 03:40:48;;;;;;;20.10;10.65;;;;;;;12.27;88.29;102008.56;4933925;29;20056;-85
2022/06/13 03:43:19;;;;;;;;;;;;;;;12.35;87.09;102023.72;4934292;29;20032;-83
2022/06/13 03:45:51;;;;;;;20.98;10.57;;;;;;;12.35;88.96;102024.56;4933885;29;19918;-89
2022/06/13 03:48:22;;;;;;;;;;;;;;;12.38;87.48;102025.31;4934178;29;20043;-90
2022/06/13 03:50:53;;;;;;;18.45;10.07;;;;;;;12.32;88.93;102032.50;4933867;29;19943;-89
2022/06/13 03:53:25;;;;;;;25.83;11.85;;;;;;;12.24;89.42;102034.63;4956311;28;20138;-88
2022/06/13 03:56:00;;;;;;;19.67;11.15;;;;;;;12.22;89.69;102030.47;4993673;28;20033;-89
2022/06/13 03:58:35;;;;;;;22.02;12.32;;;;;;;12.13;89.69;102024.00;4993607;28;20089;-85
2022/06/13 04:01:27;;;;;;;18.73;11.85;;;;;;;12.22;89.62;102041.66;4993339;28;20022;-88
2022/06/13 04:03:55;;;;;;;19.77;10.88;;;;;;;12.05;90.15;102013.16;4993633;28;20041;-85
2022/06/13 04:06:42;;;;;;;20.85;11.07;;;;;;;12.05;89.83;102013.16;4993622;28;20057;-82
2022/06/13 04:09:16;;;;;;;22.88;11.85;;;;;;;12.05;90.16;102023.53;4993279;28;20470;-89
2022/06/13 04:12:00;;;;;;;22.05;11.25;;;;;;;12.22;90.53;102038.22;4993209;28;20072;-88
2022/06/13 04:15:00;;;;;;;19.10;11.85;;;;;;;12.27;90.23;102047.41;4993202;28;20062;-89
2022/06/13 04:17:42;;;;;;;19.63;10.95;;;;;;;12.32;90.55;102047.22;4993317;28;20063;-89
2022/06/13 04:20:25;;;;;;;22.00;11.55;;;;;;;12.16;90.10;102018.63;4992934;28;20084;-83
2022/06/13 04:22:58;;;;;;;20.88;11.88;;;;;;;12.45;90.81;102050.84;4993341;28;20054;-88
2022/06/13 04:25:33;;;;;;;19.05;11.27;;;;;;;12.20;90.65;101999.47;4993202;28;20077;-87
2022/06/13 04:28:06;;;;;;;20.50;12.05;;;;;;;12.35;89.95;102003.00;4993038;28;20089;-90
2022/06/13 04:30:34;;;;;;;25.73;12.23;;;;;;;12.35;89.92;101993.47;4993186;28;20030;-86
2022/06/13 04:33:12;;;;;;;21.50;11.32;;;;;;;12.80;89.91;102056.78;4993312;28;20033;-86
2022/06/13 04:35:41;;;;;;;23.20;11.98;;;;;;;12.69;89.84;102027.19;4993289;28;20030;-88
2022/06/13 04:38:13;;;;;;;22.23;11.35;;;;;;;12.76;89.00;102018.97;4994734;28;20027;-81
2022/06/13 04:40:43;;;;;;;22.17;12.38;;;;;;;13.11;88.40;102058.59;4992909;28;20053;-83
2022/06/13 04:43:15;;;;;;;19.92;11.45;;;;;;;13.15;88.93;102047.09;4992878;28;20034;-89
2022/06/13 04:45:55;;;;;;;22.75;11.05;;;;;;;13.05;88.24;102016.56;4993309;28;20030;-87
2022/06/13 04:48:21;;;;;;;21.88;11.85;;;;;;;13.34;87.75;102065.13;4992975;28;20113;-89
2022/06/13 04:50:50;;;;;;;24.25;11.90;;;;;;;13.29;88.42;102041.22;4993084;28;20109;-88
2022/06/13 04:53:22;;;;;;;19.95;10.93;;;;;;;13.45;87.45;102060.19;4993126;28;20022;-90
2022/06/13 04:55:50;;;;;;;22.85;11.65;;;;;;;13.38;87.96;102032.94;4992775;28;20029;-82
2022/06/13 04:58:28;;;;;;;22.38;11.20;;;;;;;13.39;87.15;102013.00;4993384;28;20034;-86
2022/06/13 05:01:02;;;;;;;23.33;13.25;;;;;;;13.51;86.51;101998.50;4993078;28;20027;-90
2022/06/13 05:03:31;;;;;;;20.10;11.18;;;;;;;14.74;83.72;102071.78;4991880;28;20109;-90
2022/06/13 05:06:03;;;;;;;20.65;10.65;;;;;;;15.62;78.66;102060.19;4992848;28;20026;-85
2022/06/13 05:08:32;;;;;;;19.65;10.18;;;;;;;15.53;77.07;102028.69;4992850;28;20022;-89
2022/06/13 05:11:14;;;;;;;20.92;10.85;;;;;;;15.45;78.69;102063.88;4992678;28;20471;-86
2022/06/13 05:13:39;;;;;;;;;;;;;;;15.43;78.89;102076.13;4993074;28;20047;-82
2022/06/13 05:16:33;;;;;;;16.58;10.55;;;;;;;15.19;79.83;102075.91;4992819;28;19914;-84
2022/06/13 05:19:18;;;;;;;20.83;11.10;;;;;;;15.11;79.99;102079.94;4985486;28;20061;-81
2022/06/13 05:22:08;;;;;;;19.00;9.60;;;;;;;15.18;80.75;102079.44;4992824;28;20092;-82
2022/06/13 05:24:59;;;;;;;24.05;10.77;;;;;;;15.20;79.30;102069.78;4992478;28;20033;-82
2022/06/13 05:27:24;;;;;;;21.23;10.00;;;;;;;15.23;79.53;102063.53;4992545;28;20057;-82
2022/06/13 05:29:50;;;;;;;17.95;8.60;;;;;;;15.66;77.81;102086.91;4992880;28;20176;-84
2022/06/13 05:32:19;;;;;;;18.73;9.45;;;;;;;15.65;75.71;102048.78;4995284;28;20030;-83
2022/06/13 05:34:45;;;;;;;18.05;9.15;;;;;;;15.82;75.80;102065.88;4996341;28;20034;-81
2022/06/13 05:37:13;;;;;;;17.83;8.68;;;;;;;15.79;76.36;102061.72;4995988;28;20027;-81
2022/06/13 05:39:39;;;;;;;17.48;7.82;;;;;;;15.74;74.50;102075.06;4991305;28;20022;-85
2022/06/13 05:42:06;;;;;;;17.88;7.60;;;;;;;15.59;74.84;102062.16;4976698;28;20424;-89
2022/06/13 05:44:33;;;;;;;20.65;8.63;;;;;;;15.78;74.42;102097.34;4976690;28;20039;-85
2022/06/13 05:46:58;;;;;;;17.23;7.38;;;;;;;15.77;75.37;102106.09;4976669;28;20445;-83
2022/06/13 05:49:24;;;;;;;18.77;8.32;;;;;;;15.84;75.24;102105.72;4976632;28;20105;-82
2022/06/13 05:51:49;;;;;;;13.90;7.20;;;;;;;15.89;74.50;102101.84;4976350;28;20113;-86
2022/06/13 05:54:15;;;;;;;21.95;8.10;;;;;;;15.84;74.15;102095.28;4976635;28;20057;-86
2022/06/13 05:56:41;;;;;;;16.33;6.88;;;;;;;15.93;74.69;102079.91;4976100;28;20201;-80
2022/06/13 05:59:06;;;;;;;19.85;7.38;;;;;;;16.42;73.36;102110.53;4976342;28;20022;-81
2022/06/13 06:01:34;;;;;;;14.23;6.43;;;;;;;16.65;71.44;102116.78;4976255;28;20157;-79
2022/06/13 06:04:00;;;;;;;17.58;7.00;;;;;;;16.61;70.99;102076.19;4976463;28;20041;-84
2022/06/13 06:06:27;;;;;;;17.88;7.47;;;;;;;17.04;69.38;102115.00;4976037;28;20024;-85
2022/06/13 06:08:54;;;;;;;15.90;6.68;;;;;;;17.20;68.63;102120.81;4976236;28;20027;-81
2022/06/13 06:11:20;;;;;;;17.52;6.50;;;;;;;17.15;68.09;102123.75;4975829;28;20109;-81
2022/06/13 06:13:46;;;;;;;20.38;6.40;;;;;;;16.92;68.80;102112.31;4975892;28;20046;-88
2022/06/13 06:16:17;;;;;;;16.92;6.63;;;;;;;16.97;68.23;102134.63;4976128;28;20386;-78
2022/06/13 06:18:43;;;;;;;17.38;5.93;;;;;;;16.91;67.55;102143.72;4975745;28;20030;-87
2022/06/13 06:21:08;;;;;;;12.32;4.57;;;;;;;16.80;66.92;102154.06;4975770;28;20034;-83
2022/06/13 06:23:35;;;;;;;14.18;4.30;;;;;;;16.74;64.97;102154.50;4975826;28;20027;-87
2022/06/13 06:26:02;;;;;;;14.05;4.50;;;;;;;16.70;65.07;102145.19;4975453;28;20107;-80
2022/06/13 06:28:28;;;;;;;12.25;4.00;;;;;;;16.70;64.63;102151.22;4975879;28;20066;-83
2022/06/13 06:30:56;;;;;;;11.02;3.05;;;;;;;16.53;61.69;102135.88;4976006;28;20391;-83
2022/06/13 06:33:23;;;;;;;9.07;3.03;;;;;;;16.40;62.55;102112.38;4975629;28;20093;-85
2022/06/13 06:35:49;;;;;;;7.60;2.78;;;;;;;17.54;57.68;102129.72;4975620;28;20105;-79
2022/06/13 06:38:15;;;;;;;8.98;3.00;;;;;;;18.12;56.45;102162.09;4975782;28;20495;-82
2022/06/13 06:40:40;;;;;;;9.50;2.90;;;;;;;18.84;54.30;102133.16;4975153;28;20058;-84
2022/06/13 06:43:06;;;;;;;11.93;2.42;;;;;;;20.31;50.25;102159.72;4975169;28;20085;-86
2022/06/13 06:45:32;;;;;;;7.15;2.50;;;;;;;21.40;47.47;102122.41;4975629;28;20027;-81
2022/06/13 06:47:57;;;;;;;5.47;2.17;;;;;;;22.47;43.96;102123.22;4975342;28;20038;-81
2022/06/13 06:50:27;;;;;;;8.07;2.30;;;;;;;24.13;41.88;102161.72;4975440;28;20032;-82
2022/06/13 06:52:53;;;;;;;7.97;2.00;;;;;;;25.49;38.41;102139.00;4975385;28;20027;-81
2022/06/13 07:00:50;;;;;;;8.88;2.30;;;;;;;24.50;38.10;102169.44;4975314;28;20042;-87
2022/06/13 07:03:17;;;;;;;6.85;2.20;;;;;;;24.13;38.42;102172.25;4975088;28;20065;-84
2022/06/13 07:05:43;;;;;;;7.50;1.90;;;;;;;24.40;37.97;102146.75;4974989;28;20117;-80
2022/06/13 07:08:15;;;;;;;6.05;1.92;;;;;;;25.21;37.57;102152.47;4974990;28;20051;-84
2022/06/13 07:10:40;;;;;;;6.32;1.88;;;;;;;25.95;34.86;102145.50;4974769;28;20035;-86
2022/06/13 07:13:06;;;;;;;5.50;1.60;;;;;;;25.33;34.80;102163.56;4957487;28;20055;-84
2022/06/13 07:15:32;;;;;;;6.43;2.00;;;;;;;25.36;35.27;102168.53;4975039;28;20036;-86
2022/06/13 07:17:57;;;;;;;9.10;2.15;;;;;;;25.54;34.58;102136.66;4974834;28;20093;-85
2022/06/13 07:20:25;;;;;;;9.00;2.10;;;;;;;25.72;34.50;102172.63;4974715;28;20035;-86
2022/06/13 07:22:53;;;;;;;6.38;2.13;;;;;;;26.14;33.43;102176.09;4974972;28;20026;-77
2022/06/13 07:25:25;;;;;;;8.70;2.20;;;;;;;26.90;33.91;102159.75;4974936;28;20081;-81
2022/06/13 07:27:50;;;;;;;6.45;2.03;;;;;;;26.93;32.52;102175.31;4977070;28;20022;-80
2022/06/13 07:30:18;;;;;;;6.95;2.00;;;;;;;27.47;35.68;102130.31;4977315;28;20041;-81
2022/06/13 07:32:44;;;;;;;8.40;2.13;;;;;;;27.96;33.61;102173.28;4974181;28;20026;-87
2022/06/13 07:35:12;;;;;;;7.95;1.90;;;;;;;27.96;32.68;102177.75;4974624;28;20058;-87
2022/06/13 07:40:23;;;;;;;8.02;2.08;;;;;;;27.36;35.45;102181.13;4974382;28;20128;-85
2022/06/13 07:42:52;;;;;;;6.82;2.50;;;;;;;25.45;36.48;102176.31;4974464;28;20034;-84
2022/06/13 07:45:22;;;;;;;7.10;2.30;;;;;;;22.82;40.99;102179.69;4975229;28;20023;-84
2022/06/13 07:47:51;;;;;;;9.05;2.30;;;;;;;21.55;43.00;102149.13;4974444;28;20038;-86
2022/06/13 07:50:21;;;;;;;9.60;2.28;;;;;;;21.14;46.06;102174.59;4974026;28;20101;-86
2022/06/13 07:52:48;;;;;;;6.50;2.15;;;;;;;20.51;47.28;102120.53;4957280;28;20098;-88
2022/06/13 07:55:13;;;;;;;7.60;2.22;;;;;;;20.03;47.71;102105.28;4932690;29;20039;-83
2022/06/13 07:57:39;;;;;;;9.60;3.05;;;;;;;19.65;50.25;102072.53;4933312;29;20467;-85
2022/06/13 08:00:33;;;;;;;6.50;2.38;;;;;;;19.51;51.42;102078.06;4933321;29;20071;-85
2022/06/13 08:03:16;;;;;;;8.43;2.70;;;;;;;19.07;50.57;102043.16;4933897;29;20035;-86
2022/06/13 08:05:41;;;;;;;8.60;2.33;;;;;;;18.77;49.63;102042.97;4933554;29;20036;-85
2022/06/13 08:08:07;;;;;;;9.50;2.92;;;;;;;18.89;52.20;102076.88;4933664;29;20035;-84
2022/06/13 08:10:46;;;;;;;7.57;2.40;;;;;;;18.99;52.99;102086.63;4933567;29;20122;-83
2022/06/13 08:13:19;;;;;;;10.80;2.60;;;;;;;18.96;50.12;102037.94;4932632;29;20044;-85
2022/06/13 08:15:47;;;;;;;7.10;2.38;;;;;;;20.13;50.67;102205.84;5012135;23;20093;-83
2022/06/13 08:18:14;;;;;;;8.45;2.38;;;;;;;20.17;48.87;102220.38;4995147;28;20034;-84
2022/06/13 08:20:42;;;;;;;8.43;2.08;;;;;;;19.82;48.89;102204.03;4994764;28;20124;-84
2022/06/13 08:23:10;;;;;;;7.88;2.28;;;;;;;19.88;49.78;102233.22;5013134;28;20025;-84
2022/06/13 08:25:37;;;;;;;7.15;2.00;;;;;;;19.46;49.19;102209.41;5012854;28;20022;-85
2022/06/13 08:28:09;;;;;;;6.20;2.13;;;;;;;19.12;51.37;102226.94;4994870;28;20524;-84
2022/06/13 08:30:56;;;;;;;8.35;2.45;;;;;;;19.10;51.09;102244.56;5013015;28;20018;-86
2022/06/13 08:33:37;;;;;;;8.05;1.88;;;;;;;19.14;49.55;102243.34;5012971;28;20032;-84
2022/06/13 08:36:16;;;;;;;8.98;2.13;;;;;;;18.88;51.78;102176.47;5012748;28;20072;-87
2022/06/13 08:41:32;;;;;;;4.75;1.92;;;;;;;19.86;50.29;102243.00;5060894;23;20053;-87
2022/06/13 08:44:52;;;;;;;8.27;1.90;;;;;;;19.61;47.88;102244.09;4994830;28;20044;-86
2022/06/13 08:47:55;;;;;;;4.68;1.77;;;;;;;19.32;49.88;102217.53;5012737;28;20022;-84
2022/06/13 08:50:57;;;;;;;7.75;2.08;;;;;;;20.10;48.25;102242.81;5012876;28;20030;-86
2022/06/13 08:54:00;;;;;;;5.32;1.55;;;;;;;19.90;47.52;102143.97;4982002;28;20030;-85
2022/06/13 08:56:29;;;;;;;4.70;1.30;;;;;;;20.22;46.88;102178.84;4992583;28;20066;-85
2022/06/13 08:59:22;;;;;;;5.32;1.60;;;;;;;20.44;47.66;102185.81;4993214;28;20033;-86
2022/06/13 09:02:02;;;;;;;5.45;1.80;;;;;;;20.95;47.39;102255.91;4992720;28;20037;-88
2022/06/13 09:04:37;;;;;;;4.70;1.50;;;;;;;20.65;46.74;102221.72;4975496;28;20030;-83
2022/06/13 09:07:17;;;;;;;7.47;1.40;;;;;;;20.67;48.22;102267.06;4996606;28;20061;-84
2022/06/13 09:10:09;;;;;;;7.70;2.05;;;;;;;20.38;47.22;102267.63;4996418;28;20035;-86
2022/06/13 09:12:47;;;;;;;6.55;1.50;;;;;;;20.01;48.61;102272.41;4996892;28;20026;-86
2022/06/13 09:15:21;;;;;;;6.18;1.60;;;;;;;19.60;50.07;102197.06;4978909;28;20038;-84
2022/06/13 09:17:49;;;;;;;4.00;1.25;;;;;;;20.00;47.87;102278.59;4997559;28;20049;-89
2022/06/13 09:20:46;;;;;;;6.32;1.50;;;;;;;20.07;49.92;102277.16;4999634;28;20394;-85
2022/06/13 09:23:24;;;;;;;9.57;2.08;;;;;;;19.66;48.17;102247.19;4978973;28;20034;-85
2022/06/13 09:25:59;;;;;;;6.20;1.60;;;;;;;19.68;48.82;102274.13;4996433;28;20089;-85
2022/06/13 09:28:46;;;;;;;7.38;1.70;;;;;;;19.27;48.53;102256.34;4996277;28;20025;-84
2022/06/13 09:31:21;;;;;;;7.15;1.73;;;;;;;18.96;48.12;102280.56;4996247;28;20034;-80
2022/06/13 09:33:52;;;;;;;6.75;1.73;;;;;;;18.85;48.76;102284.81;4996582;28;20088;-80
2022/06/13 09:36:29;;;;;;;6.10;1.60;;;;;;;19.19;49.87;102280.50;4996277;28;20030;-80
2022/06/13 09:39:02;;;;;;;7.15;1.70;;;;;;;19.64;48.41;102277.91;4978882;28;20050;-81
2022/06/13 09:41:36;;;;;;;3.50;1.00;;;;;;;19.88;46.07;102280.41;4996144;28;20050;-81
2022/06/13 09:44:20;;;;;;;5.00;1.27;;;;;;;19.92;47.10;102291.47;4978590;28;20105;-80
2022/06/13 09:46:55;;;;;;;5.45;1.20;;;;;;;19.66;46.28;102298.75;4996069;28;20026;-80
2022/06/13 09:49:36;;;;;;;4.68;1.17;;;;;;;19.72;48.31;102295.69;4995992;28;20080;-80
2022/06/13 09:52:39;;;;;;;5.07;1.17;;;;;;;19.75;46.29;102291.00;4978442;28;20022;-80
2022/06/13 09:55:36;;;;;;;5.35;1.20;;;;;;;19.63;45.95;102273.63;4995903;28;20073;-79
2022/06/13 09:58:07;;;;;;;4.35;1.23;;;;;;;19.28;45.85;102297.31;4978167;28;20051;-80
2022/06/13 10:00:56;;;;;;;4.28;0.98;;;;;;;19.00;47.06;102254.06;4978257;28;20026;-80
2022/06/13 10:03:41;;;;;;;7.75;1.42;;;;;;;19.22;47.19;102295.16;4996140;28;20023;-82
2022/06/13 10:06:21;;;;;;;4.90;1.40;;;;;;;19.19;47.59;102303.25;4995457;28;20029;-79
2022/06/13 10:09:14;;;;;;;4.43;1.13;;;;;;;19.03;48.21;102269.53;4977972;28;20030;-81
2022/06/13 10:11:53;;;;;;;4.18;1.00;;;;;;;19.07;46.82;102277.97;4978133;28;20389;-84
2022/06/13 10:14:21;;;;;;;4.35;1.10;;;;;;;18.68;46.18;102284.41;4995396;28;20038;-80
2022/06/13 10:16:56;;;;;;;5.13;1.33;;;;;;;18.66;47.28;102320.34;4994733;28;20033;-84
2022/06/13 10:19:35;;;;;;;5.13;1.20;;;;;;;18.38;47.74;102277.84;4995231;28;20475;-82
2022/06/13 10:22:15;;;;;;;4.40;1.35;;;;;;;18.75;47.77;102288.25;4977963;28;20037;-84
2022/06/13 10:24:40;;;;;;;5.68;1.20;;;;;;;19.19;47.75;102314.56;4995300;28;20031;-83
2022/06/13 10:27:35;;;;;;;6.55;1.30;;;;;;;19.45;47.59;102314.34;4977959;28;20088;-88
2022/06/13 10:30:17;;;;;;;5.75;1.55;;;;;;;19.12;48.29;102309.91;4919022;29;20094;-81
2022/06/13 10:32:57;;;;;;;6.95;1.42;;;;;;;18.58;49.44;102285.09;4919078;29;20066;-83
2022/06/13 10:35:22;;;;;;;5.13;1.55;;;;;;;18.48;50.18;102275.38;4919178;29;20100;-84
2022/06/13 10:37:53;;;;;;;6.28;1.45;;;;;;;18.81;52.14;102313.97;4919247;29;21070;-83
2022/06/13 10:40:22;;;;;;;;;;;;;;;18.99;50.92;102312.59;4935223;29;20616;-83
2022/06/13 10:42:48;;;;;;;5.82;1.40;;;;;;;19.23;50.29;102316.94;4919257;29;19914;-82
2022/06/13 10:45:16;;;;;;;4.60;1.30;;;;;;;19.49;47.46;102316.63;4918884;29;20361;-82
2022/06/13 10:47:53;;;;;;;4.63;1.52;;;;;;;19.85;50.52;102311.25;4918694;29;20071;-82
2022/06/13 10:50:28;;;;;;;3.17;1.10;;;;;;;19.84;44.94;102280.75;4934780;29;20067;-81
2022/06/13 10:53:00;;;;;;;4.00;1.10;;;;;;;19.82;46.22;102264.31;4934554;29;20515;-82
2022/06/13 10:55:32;;;;;;;4.10;1.27;;;;;;;20.24;47.26;102281.84;4934331;29;20487;-83
2022/06/13 10:58:08;;;;;;;6.72;1.10;;;;;;;20.58;46.66;102269.47;4934966;29;20032;-82
2022/06/13 11:00:37;;;;;;;4.00;1.00;;;;;;;20.44;44.21;102274.19;4918101;29;20109;-84
2022/06/13 11:06:29;;;;;;;6.20;1.20;;;;;;;19.83;48.73;102314.00;5019097;23;20114;-82
2022/06/13 11:11:55;;;;;;;4.20;1.20;;;;;;;19.41;45.18;102256.13;5014485;28;20088;-81
2022/06/13 11:24:40;;;;;;;6.22;1.30;;;;;;;19.32;46.60;102264.69;4953442;29;20051;-82
2022/06/13 11:27:41;;;;;;;6.50;1.45;;;;;;;18.85;49.37;102138.25;4953421;28;20074;-80
2022/06/13 11:30:43;;;;;;;5.80;1.30;;;;;;;20.22;43.77;102306.56;4933009;29;20035;-83
2022/06/13 11:33:42;;;;;;;5.00;1.17;;;;;;;20.11;44.64;102320.53;4941771;29;20391;-89
2022/06/13 11:36:28;;;;;;;5.72;1.40;;;;;;;19.67;45.01;102274.25;4953667;28;20071;-88
2022/06/13 11:39:11;;;;;;;6.22;1.60;;;;;;;19.06;45.58;102154.09;4953674;29;20039;-90
2022/06/13 11:41:46;;;;;;;8.13;1.63;;;;;;;19.17;45.40;102145.38;4953415;28;20137;-89
2022/06/13 11:44:14;;;;;;;5.82;1.40;;;;;;;20.17;45.04;102327.91;4952709;29;20035;-82
2022/06/13 11:46:53;;;;;;;5.95;1.55;;;;;;;20.05;47.59;102307.91;4952992;29;20039;-89
2022/06/13 11:49:26;;;;;;;6.40;1.48;;;;;;;20.21;47.39;102331.94;4953377;29;20023;-83
2022/06/13 11:52:01;;;;;;;5.68;1.25;;;;;;;20.36;47.64;102334.31;4953074;29;20051;-88
2022/06/13 11:57:47;;;;;;;7.50;1.67;;;;;;;19.92;48.06;102321.16;5019208;23;20053;-87
2022/06/13 12:00:52;;;;;;;4.93;1.60;;;;;;;19.74;45.44;102333.91;4995212;28;20478;-83
2022/06/13 12:03:26;;;;;;;6.70;1.83;;;;;;;19.28;46.28;102272.91;5013256;28;20036;-81
2022/06/13 12:06:14;;;;;;;7.47;1.83;;;;;;;18.57;47.42;102151.75;5019722;23;20443;-85
2022/06/13 12:08:40;;;;;;;6.32;1.48;;;;;;;18.75;47.07;102160.84;5013154;28;20029;-87
2022/06/13 12:11:08;;;;;;;5.10;1.40;;;;;;;19.96;47.43;102333.09;5013617;28;20080;-84
2022/06/13 12:13:50;;;;;;;6.78;1.67;;;;;;;19.40;46.81;102241.34;5013024;28;20025;-86
2022/06/13 12:16:59;;;;;;;2.72;1.23;;;;;;;20.21;44.57;102325.88;5013096;28;20049;-86
2022/06/13 12:19:45;;;;;;;5.20;1.58;;;;;;;20.51;43.67;102322.59;5013944;28;20030;-90
2022/06/13 12:23:03;;;;;;;4.50;1.45;;;;;;;20.33;43.37;102328.34;5013047;28;20462;-85
2022/06/13 12:26:10;;;;;;;4.32;1.25;;;;;;;19.35;45.46;102201.56;5012793;28;20056;-89
2022/06/13 12:29:00;;;;;;;3.22;1.20;;;;;;;19.39;42.20;102170.75;5055273;23;20050;-88
2022/06/13 12:32:11;;;;;;;5.38;1.20;;;;;;;19.60;44.13;102182.16;5013162;28;20022;-87
2022/06/13 12:35:26;;;;;;;4.57;1.20;;;;;;;20.43;42.89;102335.50;5013414;28;20026;-83
2022/06/13 12:38:36;;;;;;;4.45;1.45;;;;;;;20.23;43.74;102339.69;5012517;28;20046;-84